Aérodrome :
LOGIN :

S'inscrire | Disclaimer

   EN    FR    IT 

 










Légende :    VFR   VFR Marginal   IFR   IFR Intensif   IFR Très Intensif
Visi : 
Plafond : 
>= 8 km
>= 3000ft
5 à 8 km
1000 à 3000 ft
1500m à 5 km
500 à 1000 ft
800 à 1500m
200 à 500 ft
< 800m
< 200 ft
Symboles :   Orages  Brouillard  Fortes neiges  Fortes précipitations  Vent > 20 kt
SIGMETs :   Divers  Orages  Givrage  Turbulence  Onde Orograph.  Cendres Volcan.






- Altitude de l'aérodrome : 1708 ft
- Code IATA : SJJ


LQSA - Sarajevo

DERNIER METAR :
  • 240500Z VRB02KT CAVOK 03/01 Q1017 NOSIG

METARs EXPIRÉS :
  • 240430Z VRB02KT CAVOK 03/01 Q1016 NOSIG
  • 240400Z VRB01KT CAVOK 04/02 Q1016
  • 240300Z VRB02KT CAVOK 05/01 Q1016
  • 240200Z 02003KT CAVOK 05/01 Q1017

TAF TAF LQSA
Valide du 24 à 00h jusqu'au 25 à 00h UTC


232300Z 2400/2424 16006KT CAVOK TX12/2413Z TN01/2424Z
PROB30 2409/2413 33010KT SHRA FEW035TCU BKN045
PROB40
TEMPO 2421/2424 4000 BR



MET'MAP, la Météo Aéronautique d'un coup d'oeil ! - Copyright ORBIFLY Décembre 2007 - Disclaimer

ORBIFLY MET'MAP TEAM :

Programmation & Développement : Alexandra Zaïnal
Sur une idée originale de : Baudouin d'Aumeries
Assistance à la programmation : Marc-Olivier Méhu
Soutien technique & logistique : Manuel Goepfert

Contact : metmap@orbifly.com




SOURCES & CREDITS :

   NOAA